createdAt,value
2018-02-14T00:00:34.102Z,3.35
2018-02-14T00:03:01.604Z,4.10
2018-02-14T00:05:29.108Z,3.58
2018-02-14T00:07:56.612Z,3.60
2018-02-14T00:10:24.115Z,3.15
2018-02-14T00:12:51.610Z,3.67
2018-02-14T00:15:19.095Z,3.58
2018-02-14T00:17:46.586Z,3.50
2018-02-14T00:20:14.087Z,3.55
2018-02-14T00:22:41.574Z,3.90
2018-02-14T00:25:09.064Z,3.65
2018-02-14T00:27:36.605Z,3.85
2018-02-14T00:30:04.104Z,3.80
2018-02-14T00:32:31.583Z,3.80
2018-02-14T00:34:59.061Z,3.97
2018-02-14T00:37:26.547Z,3.50
2018-02-14T00:39:54.040Z,3.87
2018-02-14T00:42:21.547Z,4.00
2018-02-14T00:44:49.032Z,4.07
2018-02-14T00:47:16.542Z,3.78
2018-02-14T00:49:44.023Z,4.03
2018-02-14T00:52:11.502Z,4.32
2018-02-14T00:54:39.017Z,4.45
2018-02-14T00:57:06.518Z,4.45
2018-02-14T00:59:34.027Z,3.90
2018-02-14T01:02:01.507Z,4.43
2018-02-14T01:04:28.987Z,4.12
2018-02-14T01:06:56.490Z,3.37
2018-02-14T01:09:23.996Z,3.35
2018-02-14T01:11:51.478Z,3.33
2018-02-14T01:14:19.011Z,3.83
2018-02-14T01:16:46.519Z,3.55
2018-02-14T01:19:16.927Z,2.80
2018-02-14T01:21:50.223Z,3.58
2018-02-14T01:24:17.713Z,3.40
2018-02-14T01:26:45.193Z,3.25
2018-02-14T01:29:12.686Z,3.08
2018-02-14T01:31:40.174Z,3.55
2018-02-14T01:34:07.669Z,2.97
2018-02-14T01:36:35.159Z,3.40
2018-02-14T01:39:02.674Z,3.03
2018-02-14T01:41:30.171Z,3.80
2018-02-14T01:43:57.680Z,2.90
2018-02-14T01:46:25.163Z,3.15
2018-02-14T01:48:52.660Z,3.15
2018-02-14T01:51:20.150Z,3.65
2018-02-14T01:53:47.647Z,3.58
2018-02-14T01:56:15.131Z,3.20
2018-02-14T01:58:42.631Z,2.60
2018-02-14T02:01:10.127Z,2.92
2018-02-14T02:03:37.620Z,3.03
2018-02-14T02:06:05.112Z,3.10
2018-02-14T02:08:32.607Z,3.22
2018-02-14T02:11:00.094Z,2.20
2018-02-14T02:13:27.610Z,2.83
2018-02-14T02:15:55.121Z,2.80
2018-02-14T02:18:22.594Z,2.72
2018-02-14T02:20:50.080Z,2.60
2018-02-14T02:23:17.572Z,2.67
2018-02-14T02:25:45.077Z,2.20
2018-02-14T02:28:12.546Z,2.55
2018-02-14T02:30:40.030Z,2.30
2018-02-14T02:33:07.507Z,2.45
2018-02-14T02:35:34.987Z,2.35
2018-02-14T02:38:02.484Z,2.50
2018-02-14T02:40:31.771Z,2.95
2018-02-14T02:42:59.260Z,2.37
2018-02-14T02:45:26.754Z,2.50
2018-02-14T02:47:54.230Z,2.10
2018-02-14T02:50:21.723Z,1.95
2018-02-14T02:52:49.207Z,2.10
2018-02-14T02:55:16.698Z,2.40
2018-02-14T02:57:44.181Z,2.60
2018-02-14T03:00:13.583Z,2.10
2018-02-14T03:02:41.062Z,1.65
2018-02-14T03:05:08.543Z,2.62
2018-02-14T03:07:36.024Z,1.75
2018-02-14T03:10:03.494Z,2.05
2018-02-14T03:12:30.992Z,2.10
2018-02-14T03:14:58.470Z,2.00
2018-02-14T03:17:25.948Z,2.17
2018-02-14T03:19:53.431Z,1.73
2018-02-14T03:22:20.898Z,1.98
2018-02-14T03:24:48.355Z,1.77
2018-02-14T03:27:15.851Z,1.40
2018-02-14T03:29:43.285Z,1.70
2018-02-14T03:32:10.794Z,1.60
2018-02-14T03:34:38.239Z,1.55
2018-02-14T03:37:05.759Z,1.67
2018-02-14T03:39:33.234Z,1.58
2018-02-14T03:42:00.706Z,1.40
2018-02-14T03:44:28.189Z,2.00
2018-02-14T03:46:55.670Z,1.60
2018-02-14T03:49:23.143Z,1.55
2018-02-14T03:51:50.631Z,1.70
2018-02-14T03:54:18.117Z,2.12
2018-02-14T03:56:45.608Z,1.60
2018-02-14T03:59:13.109Z,1.70
2018-02-14T04:01:40.604Z,2.10
2018-02-14T04:04:08.076Z,1.60
2018-02-14T04:06:35.560Z,1.65
2018-02-14T04:09:03.040Z,1.52
2018-02-14T04:11:30.542Z,1.60
2018-02-14T04:13:58.008Z,1.75
2018-02-14T04:16:25.500Z,2.10
2018-02-14T04:18:52.983Z,1.30
2018-02-14T04:21:20.457Z,2.03
2018-02-14T04:23:47.942Z,1.80
2018-02-14T04:26:15.433Z,1.70
2018-02-14T04:28:42.899Z,1.70
2018-02-14T04:31:10.396Z,2.00
2018-02-14T04:33:37.873Z,1.75
2018-02-14T04:36:05.313Z,2.30
2018-02-14T04:38:32.822Z,1.92
2018-02-14T04:41:00.315Z,2.15
2018-02-14T04:43:27.792Z,1.95
2018-02-14T04:45:55.279Z,1.65
2018-02-14T04:48:22.769Z,1.60
2018-02-14T04:50:50.253Z,2.00
2018-02-14T04:53:17.738Z,1.58
2018-02-14T04:55:45.219Z,1.50
2018-02-14T04:58:12.708Z,1.65
2018-02-14T05:00:40.176Z,1.70
2018-02-14T05:03:07.682Z,1.65
2018-02-14T05:05:35.165Z,1.62
2018-02-14T05:08:02.761Z,1.98
2018-02-14T05:10:30.242Z,1.55
2018-02-14T05:12:57.722Z,1.65
2018-02-14T05:15:25.215Z,1.45
2018-02-14T05:17:52.699Z,1.33
2018-02-14T05:20:20.183Z,1.77
2018-02-14T05:22:47.655Z,1.48
2018-02-14T05:25:15.153Z,1.60
2018-02-14T05:27:42.631Z,1.58
2018-02-14T05:30:10.116Z,1.73
2018-02-14T05:32:37.606Z,1.77
2018-02-14T05:35:05.088Z,2.05
2018-02-14T05:37:32.585Z,1.50
2018-02-14T05:40:00.094Z,2.10
2018-02-14T05:42:27.583Z,1.40
2018-02-14T05:44:55.073Z,1.90
2018-02-14T05:47:22.558Z,1.50
2018-02-14T05:49:50.035Z,1.87
2018-02-14T05:52:17.527Z,1.42
2018-02-14T05:54:45.011Z,1.60
2018-02-14T05:57:12.483Z,1.40
2018-02-14T05:59:39.965Z,1.20
2018-02-14T06:02:07.450Z,1.55
2018-02-14T06:04:34.948Z,1.40
2018-02-14T06:07:02.376Z,1.05
2018-02-14T06:09:29.881Z,1.40
2018-02-14T06:11:57.354Z,1.50
2018-02-14T06:14:24.834Z,1.92
2018-02-14T06:16:52.329Z,1.40
2018-02-14T06:19:19.818Z,1.23
2018-02-14T06:21:47.261Z,1.52
2018-02-14T06:24:14.778Z,1.35
2018-02-14T06:26:42.266Z,1.60
2018-02-14T06:29:09.767Z,1.30
2018-02-14T06:31:37.247Z,1.55
2018-02-14T06:34:04.731Z,2.20
2018-02-14T06:36:32.204Z,1.15
2018-02-14T06:38:59.703Z,1.67
2018-02-14T06:41:27.192Z,1.33
2018-02-14T06:43:54.675Z,1.33
2018-02-14T06:46:22.160Z,1.20
2018-02-14T06:48:49.653Z,1.52
2018-02-14T06:51:17.136Z,1.17
2018-02-14T06:53:44.610Z,1.23
2018-02-14T06:56:12.092Z,1.50
2018-02-14T06:58:39.567Z,1.10
2018-02-14T07:01:07.056Z,0.88
2018-02-14T07:03:34.539Z,1.55
2018-02-14T07:06:02.999Z,0.95
2018-02-14T07:08:30.495Z,1.25
2018-02-14T07:10:58.027Z,1.45
2018-02-14T07:13:25.551Z,1.83
2018-02-14T07:15:53.035Z,1.83
2018-02-14T07:18:20.506Z,1.35
2018-02-14T07:20:48.011Z,1.12
2018-02-14T07:23:15.495Z,1.10
2018-02-14T07:25:42.965Z,1.37
2018-02-14T07:28:10.444Z,1.17
2018-02-14T07:30:37.932Z,1.77
2018-02-14T07:33:05.371Z,1.67
2018-02-14T07:35:32.879Z,1.25
2018-02-14T07:38:00.354Z,1.10
2018-02-14T07:40:27.847Z,1.23
2018-02-14T07:42:55.343Z,1.15
2018-02-14T07:45:22.826Z,1.27
2018-02-14T07:47:50.331Z,1.12
2018-02-14T07:50:17.811Z,1.33
2018-02-14T07:52:45.284Z,1.02
2018-02-14T07:55:12.772Z,1.17
2018-02-14T07:57:40.445Z,1.42
2018-02-14T08:00:07.942Z,1.02
2018-02-14T08:02:35.440Z,1.20
2018-02-14T08:05:02.916Z,1.03
2018-02-14T08:07:30.395Z,1.23
2018-02-14T08:09:57.887Z,0.98
2018-02-14T08:12:25.367Z,0.77
2018-02-14T08:14:52.850Z,1.23
2018-02-14T08:17:20.399Z,1.12
2018-02-14T08:19:47.891Z,1.08
2018-02-14T08:22:15.483Z,0.90
2018-02-14T08:24:42.971Z,1.00
2018-02-14T08:27:10.427Z,1.02
2018-02-14T08:29:38.021Z,0.93
2018-02-14T08:32:06.589Z,1.33
2018-02-14T08:34:34.075Z,1.02
2018-02-14T08:37:01.514Z,1.40
2018-02-14T08:39:29.023Z,1.08
2018-02-14T08:41:56.514Z,0.80
2018-02-14T08:44:24.008Z,0.60
2018-02-14T08:46:51.518Z,0.98
2018-02-14T08:49:19.196Z,1.00
2018-02-14T08:51:47.877Z,0.88
2018-02-14T08:54:15.397Z,1.00
2018-02-14T08:56:42.887Z,1.05
2018-02-14T08:59:10.358Z,1.23
2018-02-14T09:01:38.011Z,0.93
2018-02-14T09:04:05.463Z,0.75
2018-02-14T09:06:32.979Z,0.85
2018-02-14T09:09:00.424Z,1.00
2018-02-14T09:11:27.934Z,1.05
2018-02-14T09:13:55.423Z,1.37
2018-02-14T09:16:22.895Z,0.80
2018-02-14T09:18:50.379Z,1.20
2018-02-14T09:21:17.846Z,0.80
2018-02-14T09:23:45.329Z,0.65
2018-02-14T09:26:12.806Z,0.77
2018-02-14T09:28:40.268Z,0.60
2018-02-14T09:31:07.777Z,0.90
2018-02-14T09:33:35.286Z,1.27
2018-02-14T09:36:02.963Z,0.77
2018-02-14T09:38:30.437Z,1.10
2018-02-14T09:40:57.914Z,1.00
2018-02-14T09:43:25.412Z,0.70
2018-02-14T09:45:52.938Z,0.80
2018-02-14T09:48:20.419Z,1.02
2018-02-14T09:50:47.914Z,0.93
2018-02-14T09:53:15.393Z,0.75
2018-02-14T09:55:42.891Z,0.60
2018-02-14T09:58:10.364Z,1.00
2018-02-14T10:00:37.852Z,1.12
2018-02-14T10:03:05.321Z,0.85
2018-02-14T10:05:32.815Z,0.90
2018-02-14T10:08:00.292Z,0.75
2018-02-14T10:10:27.818Z,0.90
2018-02-14T10:12:55.291Z,1.10
2018-02-14T10:15:22.800Z,0.70
2018-02-14T10:17:50.300Z,0.82
2018-02-14T10:20:17.791Z,0.60
2018-02-14T10:22:45.279Z,0.80
2018-02-14T10:25:12.807Z,0.45
2018-02-14T10:27:40.288Z,0.98
2018-02-14T10:30:07.775Z,1.27
2018-02-14T10:32:35.244Z,0.73
2018-02-14T10:35:02.770Z,0.70
2018-02-14T10:37:30.236Z,0.80
2018-02-14T10:39:57.722Z,1.08
2018-02-14T10:42:25.212Z,1.30
2018-02-14T10:44:52.716Z,1.00
2018-02-14T10:47:20.208Z,1.40
2018-02-14T10:49:47.711Z,1.00
2018-02-14T10:52:15.200Z,0.90
2018-02-14T10:54:42.666Z,1.45
2018-02-14T10:57:10.162Z,0.80
2018-02-14T10:59:37.651Z,0.90
2018-02-14T11:02:10.884Z,1.35
2018-02-14T11:04:43.846Z,0.90
2018-02-14T11:07:16.925Z,1.08
2018-02-14T11:09:44.406Z,1.10
2018-02-14T11:12:11.895Z,0.82
2018-02-14T11:14:39.388Z,1.33
2018-02-14T11:17:06.864Z,0.50
2018-02-14T11:19:34.336Z,0.70
2018-02-14T11:22:01.840Z,0.60
2018-02-14T11:24:29.468Z,0.35
2018-02-14T11:26:56.952Z,0.50
2018-02-14T11:29:24.433Z,0.40
2018-02-14T11:31:51.925Z,0.30
2018-02-14T11:34:19.442Z,0.60
2018-02-14T11:36:46.938Z,0.30
2018-02-14T11:39:14.507Z,0.47
2018-02-14T11:41:41.990Z,0.40
2018-02-14T11:44:09.491Z,0.50
2018-02-14T11:46:36.979Z,0.40
2018-02-14T11:49:04.463Z,0.20
2018-02-14T11:51:31.967Z,0.40
2018-02-14T11:53:59.452Z,0.30
2018-02-14T11:56:26.963Z,0.50
2018-02-14T11:58:54.455Z,0.73
2018-02-14T12:01:21.954Z,0.50
2018-02-14T12:03:49.448Z,0.70
2018-02-14T12:06:17.039Z,0.57
2018-02-14T12:08:45.554Z,0.50
2018-02-14T12:11:13.056Z,0.47
2018-02-14T12:13:40.530Z,0.40
2018-02-14T12:16:08.027Z,0.55
2018-02-14T12:18:35.535Z,0.40
2018-02-14T12:21:03.005Z,0.50
2018-02-14T12:23:30.449Z,0.50
2018-02-14T12:25:57.972Z,0.50
2018-02-14T12:28:25.476Z,0.30
2018-02-14T12:30:52.967Z,0.50
2018-02-14T12:33:20.459Z,0.47
2018-02-14T12:35:47.952Z,0.60
2018-02-14T12:38:15.457Z,0.20
2018-02-14T12:40:42.967Z,0.52
2018-02-14T12:43:10.450Z,0.55
2018-02-14T12:45:37.952Z,0.40
2018-02-14T12:48:05.456Z,0.30
2018-02-14T12:50:32.958Z,0.45
2018-02-14T12:53:00.452Z,0.30
2018-02-14T12:55:27.959Z,0.60
2018-02-14T12:57:56.332Z,0.50
2018-02-14T13:00:23.836Z,0.47
2018-02-14T13:02:51.329Z,0.50
2018-02-14T13:05:18.880Z,0.60
2018-02-14T13:07:46.386Z,0.43
2018-02-14T13:10:13.869Z,0.40
2018-02-14T13:12:41.361Z,0.35
2018-02-14T13:15:08.851Z,0.25
2018-02-14T13:17:36.346Z,0.20
2018-02-14T13:20:03.853Z,0.40
2018-02-14T13:22:31.337Z,0.22
2018-02-14T13:24:58.814Z,0.30
2018-02-14T13:27:26.306Z,0.30
2018-02-14T13:29:53.798Z,0.43
2018-02-14T13:32:21.321Z,0.50
2018-02-14T13:34:48.814Z,0.40
2018-02-14T13:37:16.312Z,0.50
2018-02-14T13:39:43.795Z,0.40
2018-02-14T13:42:11.914Z,0.30
2018-02-14T13:44:39.548Z,0.30
2018-02-14T13:47:07.025Z,0.32
2018-02-14T13:49:34.517Z,0.40
2018-02-14T13:52:03.951Z,0.30
2018-02-14T13:54:31.676Z,0.20
2018-02-14T13:57:00.332Z,0.43
2018-02-14T13:59:28.335Z,0.47
2018-02-14T14:01:56.919Z,0.47
2018-02-14T14:04:24.615Z,0.45
2018-02-14T14:06:52.534Z,0.82
2018-02-14T14:09:20.058Z,0.80
2018-02-14T14:11:48.778Z,0.45
2018-02-14T14:14:21.807Z,0.40
2018-02-14T14:16:49.884Z,0.60
2018-02-14T14:19:18.557Z,0.60
2018-02-14T14:21:46.467Z,0.60
2018-02-14T14:24:16.552Z,0.50
2018-02-14T14:26:44.982Z,0.65
2018-02-14T14:29:12.463Z,0.57
2018-02-14T14:31:39.954Z,0.50
2018-02-14T14:34:07.472Z,0.98
2018-02-14T14:36:35.540Z,1.92
2018-02-14T14:39:03.007Z,1.42
2018-02-14T14:41:30.491Z,0.98
2018-02-14T14:43:58.085Z,1.30
2018-02-14T14:46:25.583Z,1.02
2018-02-14T14:48:53.285Z,1.37
2018-02-14T14:51:20.800Z,1.02
2018-02-14T14:53:48.324Z,1.23
2018-02-14T14:56:15.815Z,1.10
2018-02-14T14:58:43.317Z,1.62
2018-02-14T15:01:10.808Z,1.40
2018-02-14T15:03:38.310Z,1.67
2018-02-14T15:06:05.865Z,1.40
2018-02-14T15:08:34.377Z,2.00
2018-02-14T15:11:01.881Z,1.65
2018-02-14T15:13:29.512Z,1.80
2018-02-14T15:15:56.999Z,1.62
2018-02-14T15:18:24.760Z,1.58
2018-02-14T15:20:52.296Z,1.90
2018-02-14T15:23:21.642Z,1.65
2018-02-14T15:25:49.154Z,1.45
2018-02-14T15:28:16.614Z,1.60
2018-02-14T15:30:44.208Z,2.33
2018-02-14T15:33:11.757Z,2.47
2018-02-14T15:35:39.271Z,2.60
2018-02-14T15:38:07.711Z,2.87
2018-02-14T15:40:35.207Z,3.33
2018-02-14T15:43:02.792Z,3.37
2018-02-14T15:45:30.324Z,3.42
2018-02-14T15:47:57.841Z,3.67
2018-02-14T15:50:25.487Z,4.18
2018-02-14T15:52:53.075Z,2.62
2018-02-14T15:55:20.609Z,2.72
2018-02-14T15:57:48.252Z,4.60
2018-02-14T16:00:15.740Z,3.55
2018-02-14T16:02:43.256Z,3.62
2018-02-14T16:05:10.847Z,2.50
2018-02-14T16:07:38.388Z,2.45
2018-02-14T16:10:06.016Z,3.33
2018-02-14T16:12:33.578Z,2.60
2018-02-14T16:15:01.039Z,2.70
2018-02-14T16:17:28.535Z,3.12
2018-02-14T16:19:56.023Z,3.12
2018-02-14T16:22:23.508Z,3.13
2018-02-14T16:24:51.003Z,3.22
2018-02-14T16:27:17.871Z,3.50
2018-02-14T16:29:45.357Z,4.18
2018-02-14T16:32:12.880Z,4.85
2018-02-14T16:34:40.359Z,5.82
2018-02-14T16:37:07.917Z,8.07
2018-02-14T16:39:35.517Z,13.15
2018-02-14T16:42:03.055Z,12.60
2018-02-14T16:44:30.591Z,9.68
2018-02-14T16:46:58.083Z,12.10
2018-02-14T16:49:25.620Z,9.13
2018-02-14T16:51:53.160Z,10.55
2018-02-14T16:57:03.629Z,6.70
2018-02-14T16:59:31.122Z,5.82
2018-02-14T17:01:58.643Z,3.62
2018-02-14T17:04:26.139Z,5.78
2018-02-14T17:06:53.736Z,4.62
2018-02-14T17:09:21.256Z,4.40
2018-02-14T17:11:48.754Z,4.82
2018-02-14T17:14:16.252Z,5.18
2018-02-14T17:16:43.768Z,5.32
2018-02-14T17:19:11.270Z,4.05
2018-02-14T17:21:38.769Z,4.05
2018-02-14T17:24:06.287Z,3.72
2018-02-14T17:26:33.834Z,2.22
2018-02-14T17:29:01.315Z,2.87
2018-02-14T17:31:28.846Z,3.67
2018-02-14T17:33:56.348Z,4.53
2018-02-14T17:36:23.867Z,3.10
2018-02-14T17:38:51.372Z,3.72
2018-02-14T17:41:18.876Z,4.50
2018-02-14T17:43:46.410Z,5.47
2018-02-14T17:46:13.929Z,5.35
2018-02-14T17:48:41.428Z,4.87
2018-02-14T17:51:08.923Z,5.12
2018-02-14T17:53:36.496Z,5.47
2018-02-14T17:56:04.028Z,4.72
2018-02-14T17:58:31.532Z,4.70
2018-02-14T18:00:59.023Z,4.87
2018-02-14T18:03:26.549Z,5.87
2018-02-14T18:05:54.037Z,5.67
2018-02-14T18:08:21.540Z,5.25
2018-02-14T18:10:49.067Z,5.00
2018-02-14T18:13:16.562Z,4.50
2018-02-14T18:15:44.085Z,6.12
2018-02-14T18:18:11.590Z,6.00
2018-02-14T18:20:39.098Z,5.35
2018-02-14T18:23:06.607Z,5.25
2018-02-14T18:25:34.154Z,4.60
2018-02-14T18:28:01.703Z,5.78
2018-02-14T18:30:29.274Z,6.20
2018-02-14T18:32:56.762Z,5.80
2018-02-14T18:35:24.255Z,5.60
2018-02-14T18:37:51.778Z,5.95
2018-02-14T18:40:19.266Z,5.32
2018-02-14T18:42:46.757Z,5.75
2018-02-14T18:45:14.240Z,5.57
2018-02-14T18:47:41.739Z,8.88
2018-02-14T18:50:09.231Z,6.80
2018-02-14T18:52:36.714Z,8.23
2018-02-14T18:55:04.255Z,7.90
2018-02-14T18:57:31.802Z,6.53
2018-02-14T18:59:59.356Z,7.45
2018-02-14T19:02:26.843Z,6.43
2018-02-14T19:04:54.352Z,5.70
2018-02-14T19:07:23.059Z,4.93
2018-02-14T19:09:50.619Z,5.43
2018-02-14T19:12:18.171Z,5.97
2018-02-14T19:14:45.807Z,5.05
2018-02-14T19:17:13.379Z,5.45
2018-02-14T19:19:40.941Z,5.80
2018-02-14T19:22:08.461Z,5.47
2018-02-14T19:24:36.013Z,6.30
2018-02-14T19:27:04.267Z,4.72
2018-02-14T19:29:32.483Z,6.30
2018-02-14T19:32:00.064Z,6.12
2018-02-14T19:34:27.609Z,7.75
2018-02-14T19:36:55.209Z,8.70
2018-02-14T19:39:22.719Z,8.45
2018-02-14T19:41:50.215Z,8.63
2018-02-14T19:44:18.751Z,9.05
2018-02-14T19:46:46.262Z,8.07
2018-02-14T19:49:13.864Z,9.93
2018-02-14T19:51:41.378Z,12.90
2018-02-14T19:54:08.875Z,12.35
2018-02-14T19:56:36.368Z,8.15
2018-02-14T19:59:03.892Z,8.18
2018-02-14T20:01:31.387Z,9.05
2018-02-14T20:03:58.902Z,8.48
2018-02-14T20:06:26.406Z,8.23
2018-02-14T20:08:53.895Z,8.10
2018-02-14T20:11:21.395Z,9.70
2018-02-14T20:13:48.888Z,9.50
2018-02-14T20:16:16.373Z,6.85
2018-02-14T20:18:43.888Z,6.60
2018-02-14T20:21:11.382Z,7.00
2018-02-14T20:23:38.891Z,9.75
2018-02-14T20:26:06.388Z,9.20
2018-02-14T20:28:33.903Z,8.60
2018-02-14T20:31:01.407Z,7.93
2018-02-14T20:33:28.920Z,10.75
2018-02-14T20:35:56.444Z,8.30
2018-02-14T20:38:23.939Z,9.23
2018-02-14T20:40:51.463Z,8.60
2018-02-14T20:43:19.002Z,7.13
2018-02-14T20:45:46.531Z,6.78
2018-02-14T20:48:14.028Z,7.00
2018-02-14T20:50:41.547Z,6.82
2018-02-14T20:53:09.035Z,8.15
2018-02-14T20:55:36.526Z,7.25
2018-02-14T20:58:03.990Z,7.00
2018-02-14T21:00:31.619Z,8.67
2018-02-14T21:02:59.120Z,8.02
2018-02-14T21:05:26.633Z,8.45
2018-02-14T21:07:54.141Z,8.30
2018-02-14T21:10:21.633Z,8.98
2018-02-14T21:12:49.173Z,8.07
2018-02-14T21:15:16.740Z,7.35
2018-02-14T21:17:44.231Z,7.82
2018-02-14T21:20:11.720Z,8.48
2018-02-14T21:22:39.223Z,8.48
2018-02-14T21:25:06.711Z,8.20
2018-02-14T21:27:34.278Z,9.65
2018-02-14T21:30:01.790Z,8.55
2018-02-14T21:32:29.284Z,9.27
2018-02-14T21:34:56.774Z,8.95
2018-02-14T21:37:24.281Z,8.60
2018-02-14T21:42:24.863Z,8.65
2018-02-14T21:44:52.371Z,7.57
2018-02-14T21:47:19.928Z,8.32
2018-02-14T21:49:47.432Z,8.30
2018-02-14T21:52:15.114Z,9.35
2018-02-14T21:54:42.614Z,7.60
2018-02-14T21:57:10.109Z,10.55
2018-02-14T21:59:37.789Z,8.80
2018-02-14T22:02:05.305Z,8.55
2018-02-14T22:04:32.821Z,9.40
2018-02-14T22:07:00.340Z,8.45
2018-02-14T22:09:27.971Z,9.40
2018-02-14T22:11:55.464Z,8.40
2018-02-14T22:14:22.977Z,8.52
2018-02-14T22:16:50.463Z,8.18
2018-02-14T22:19:17.961Z,8.10
2018-02-14T22:21:45.477Z,9.25
2018-02-14T22:24:12.971Z,9.05
2018-02-14T22:26:40.483Z,9.32
2018-02-14T22:29:07.972Z,9.43
2018-02-14T22:31:35.532Z,9.18
2018-02-14T22:34:03.021Z,9.63
2018-02-14T22:36:30.552Z,10.00
2018-02-14T22:38:58.079Z,8.20
2018-02-14T22:41:25.583Z,8.93
2018-02-14T22:43:53.086Z,8.70
2018-02-14T22:46:20.575Z,8.65
2018-02-14T22:48:48.104Z,7.22
2018-02-14T22:51:15.607Z,9.00
2018-02-14T22:53:43.116Z,7.05
2018-02-14T22:56:10.634Z,8.68
2018-02-14T22:58:38.166Z,7.60
2018-02-14T23:01:05.681Z,8.05
2018-02-14T23:03:33.208Z,9.32
2018-02-14T23:06:00.715Z,9.07
2018-02-14T23:08:28.195Z,7.50
2018-02-14T23:10:55.695Z,8.48
2018-02-14T23:13:23.229Z,8.48
2018-02-14T23:15:50.795Z,9.48
2018-02-14T23:18:18.295Z,7.32
2018-02-14T23:20:45.804Z,8.18
2018-02-14T23:23:13.313Z,7.78
2018-02-14T23:25:40.854Z,7.30
2018-02-14T23:28:08.451Z,8.60
2018-02-14T23:30:35.957Z,8.73
2018-02-14T23:33:03.459Z,8.20
2018-02-14T23:35:30.962Z,9.50
2018-02-14T23:37:58.470Z,10.32
2018-02-14T23:40:25.979Z,9.73
2018-02-14T23:42:53.501Z,8.48
2018-02-14T23:45:21.003Z,9.60
2018-02-14T23:47:48.529Z,9.68
2018-02-14T23:50:16.019Z,8.85
2018-02-14T23:52:43.534Z,9.02
2018-02-14T23:55:11.019Z,10.10
2018-02-14T23:57:38.523Z,9.27
